createdAt,value
2022-08-21T00:02:04.929Z,10.48
2022-08-21T00:07:01.339Z,6.18
2022-08-21T00:11:57.752Z,6.45
2022-08-21T00:16:57.266Z,9.15
2022-08-21T00:21:57.933Z,6.53
2022-08-21T00:26:54.626Z,10.25
2022-08-21T00:31:51.018Z,12.40
2022-08-21T00:36:47.409Z,9.25
2022-08-21T00:41:44.029Z,16.67
2022-08-21T00:46:42.337Z,15.88
2022-08-21T00:51:44.447Z,11.15
2022-08-21T00:56:41.977Z,10.10
2022-08-21T01:01:40.031Z,10.50
2022-08-21T01:06:36.448Z,9.45
2022-08-21T01:11:32.920Z,10.52
2022-08-21T01:16:29.665Z,7.25
2022-08-21T01:21:28.469Z,8.63
2022-08-21T01:26:33.932Z,9.02
2022-08-21T01:31:32.730Z,7.85
2022-08-21T01:41:25.517Z,6.43
2022-08-21T01:46:21.938Z,7.05
2022-08-21T01:51:18.481Z,14.23
2022-08-21T01:56:16.725Z,6.32
2022-08-21T02:01:13.475Z,8.32
2022-08-21T02:06:15.816Z,12.52
2022-08-21T02:11:12.421Z,19.52
2022-08-21T02:16:09.167Z,13.95
2022-08-21T02:21:06.717Z,14.88
2022-08-21T02:26:07.501Z,18.50
2022-08-21T02:31:04.826Z,16.05
2022-08-21T02:36:02.916Z,10.93
2022-08-21T02:45:57.906Z,15.45
2022-08-21T02:51:04.701Z,13.40
2022-08-21T02:56:04.951Z,10.05
2022-08-21T03:01:01.590Z,8.77
2022-08-21T03:05:58.004Z,12.38
2022-08-21T03:10:55.098Z,7.78
2022-08-21T03:15:51.674Z,11.90
2022-08-21T03:20:48.549Z,12.50
2022-08-21T03:25:46.714Z,12.77
2022-08-21T03:30:45.062Z,14.82
2022-08-21T03:35:43.408Z,14.88
2022-08-21T03:40:39.816Z,20.02
2022-08-21T03:45:37.216Z,17.08
2022-08-21T03:50:40.789Z,14.82
2022-08-21T03:55:37.752Z,12.93
2022-08-21T04:00:35.910Z,18.50
2022-08-21T04:05:32.347Z,14.02
2022-08-21T04:10:31.530Z,14.65
2022-08-21T04:15:27.964Z,18.38
2022-08-21T04:20:26.002Z,18.63
2022-08-21T04:30:20.641Z,14.17
2022-08-21T04:35:20.048Z,10.83
2022-08-21T04:40:18.626Z,15.45
2022-08-21T04:45:45.693Z,17.40
2022-08-21T04:51:07.069Z,13.97
2022-08-21T04:56:09.437Z,17.77
2022-08-21T05:01:09.907Z,14.73
2022-08-21T05:06:10.039Z,16.42
2022-08-21T05:11:07.631Z,17.20
2022-08-21T05:16:04.471Z,16.30
2022-08-21T05:21:00.849Z,13.40
2022-08-21T05:25:57.472Z,14.10
2022-08-21T05:30:54.163Z,14.65
2022-08-21T05:35:53.434Z,16.00
2022-08-21T05:40:49.823Z,17.75
2022-08-21T05:45:46.674Z,16.90
2022-08-21T05:50:44.018Z,21.73
2022-08-21T05:55:45.786Z,17.27
2022-08-21T06:00:44.317Z,15.15
2022-08-21T06:05:40.695Z,20.73
2022-08-21T06:10:37.153Z,17.33
2022-08-21T06:15:33.966Z,20.92
2022-08-21T06:20:30.628Z,18.35
2022-08-21T06:25:27.209Z,17.40
2022-08-21T06:30:23.670Z,16.90
2022-08-21T06:35:20.537Z,17.58
2022-08-21T06:40:17.035Z,20.20
2022-08-21T06:45:15.140Z,21.40
2022-08-21T06:50:11.702Z,19.98
2022-08-21T06:55:11.163Z,14.32
2022-08-21T07:00:10.387Z,17.63
2022-08-21T07:05:07.878Z,19.70
2022-08-21T07:10:22.355Z,16.20
2022-08-21T07:15:19.336Z,19.13
2022-08-21T07:20:15.875Z,17.60
2022-08-21T07:25:12.799Z,12.25
2022-08-21T07:30:09.646Z,15.50
2022-08-21T07:35:06.337Z,16.73
2022-08-21T07:40:03.429Z,20.70
2022-08-21T07:44:59.869Z,15.70
2022-08-21T07:49:56.301Z,17.13
2022-08-21T07:54:53.455Z,15.73
2022-08-21T07:59:49.986Z,11.68
2022-08-21T08:04:50.532Z,12.75
2022-08-21T08:09:47.458Z,13.48
2022-08-21T08:14:43.982Z,13.52
2022-08-21T08:19:40.681Z,8.67
2022-08-21T08:24:39.605Z,13.20
2022-08-21T08:29:36.255Z,9.82
2022-08-21T08:34:32.635Z,7.17
2022-08-21T08:44:29.680Z,12.20
2022-08-21T08:49:37.685Z,6.22
2022-08-21T08:54:46.210Z,6.93
2022-08-21T08:59:47.813Z,11.02
2022-08-21T09:04:48.241Z,9.15
2022-08-21T09:10:02.983Z,8.43
2022-08-21T09:15:42.257Z,12.60
2022-08-21T09:20:48.268Z,6.80
2022-08-21T09:26:22.030Z,10.90
2022-08-21T09:31:27.526Z,9.07
2022-08-21T09:36:36.548Z,8.48
2022-08-21T09:41:36.434Z,11.25
2022-08-21T09:46:33.851Z,4.97
2022-08-21T09:56:51.840Z,5.28
2022-08-21T10:01:51.604Z,7.68
2022-08-21T10:06:50.041Z,4.70
2022-08-21T10:11:58.113Z,10.30
2022-08-21T10:17:08.502Z,9.68
2022-08-21T10:22:23.685Z,4.65
2022-08-21T10:27:42.293Z,8.70
2022-08-21T10:32:53.695Z,7.13
2022-08-21T10:38:48.767Z,5.80
2022-08-21T10:44:14.524Z,7.45
2022-08-21T10:49:28.497Z,6.38
2022-08-21T10:54:39.056Z,7.32
2022-08-21T10:59:44.744Z,5.28
2022-08-21T11:04:51.059Z,3.88
2022-08-21T11:09:50.148Z,6.87
2022-08-21T11:14:54.880Z,6.80
2022-08-21T11:20:05.305Z,6.38
2022-08-21T11:25:04.196Z,10.88
2022-08-21T11:30:02.608Z,8.63
2022-08-21T11:35:20.394Z,3.97
2022-08-21T11:40:38.251Z,3.83
2022-08-21T11:45:56.052Z,9.98
2022-08-21T11:50:53.417Z,6.55
2022-08-21T11:56:09.158Z,5.10
2022-08-21T12:01:33.066Z,5.18
2022-08-21T12:06:37.990Z,6.88
2022-08-21T12:11:48.711Z,3.97
2022-08-21T12:16:50.057Z,6.43
2022-08-21T12:22:10.881Z,9.63
2022-08-21T12:27:31.684Z,9.85
2022-08-21T12:32:31.529Z,2.45
2022-08-21T12:37:27.802Z,7.30
2022-08-21T12:42:32.355Z,5.47
2022-08-21T12:47:46.087Z,2.92
2022-08-21T12:52:55.372Z,3.75
2022-08-21T12:57:51.713Z,4.75
2022-08-21T13:02:50.249Z,3.20
2022-08-21T13:07:49.195Z,3.25
2022-08-21T13:12:46.259Z,2.55
2022-08-21T13:17:51.932Z,4.38
2022-08-21T13:22:48.648Z,3.38
2022-08-21T13:28:17.019Z,3.25
2022-08-21T13:33:16.185Z,3.17
2022-08-21T13:38:12.749Z,4.20
2022-08-21T13:43:21.242Z,7.45
2022-08-21T13:48:18.143Z,4.18
2022-08-21T13:53:24.878Z,4.95
2022-08-21T13:58:34.121Z,5.55
2022-08-21T14:03:38.411Z,5.65
2022-08-21T14:08:41.971Z,7.57
2022-08-21T14:14:00.628Z,4.82
2022-08-21T14:19:03.556Z,7.57
2022-08-21T14:24:24.001Z,6.82
2022-08-21T14:29:23.436Z,5.63
2022-08-21T14:34:20.178Z,1.70
2022-08-21T14:39:16.866Z,3.70
2022-08-21T14:44:14.354Z,4.00
2022-08-21T14:49:10.859Z,1.35
2022-08-21T14:54:07.836Z,1.77
2022-08-21T14:59:07.001Z,2.03
2022-08-21T15:04:03.604Z,3.80
2022-08-21T15:09:00.029Z,3.15
2022-08-21T15:14:01.310Z,6.97
2022-08-21T15:19:00.029Z,1.27
2022-08-21T15:23:56.668Z,2.13
2022-08-21T15:28:53.178Z,1.88
2022-08-21T15:33:49.480Z,4.60
2022-08-21T15:38:46.196Z,2.30
2022-08-21T15:43:48.721Z,1.35
2022-08-21T15:48:46.984Z,1.77
2022-08-21T15:53:44.148Z,3.17
2022-08-21T15:58:40.499Z,2.53
2022-08-21T16:03:36.890Z,0.87
2022-08-21T16:08:33.270Z,1.40
2022-08-21T16:13:37.500Z,1.17
2022-08-21T16:18:33.845Z,2.78
2022-08-21T16:23:30.318Z,3.53
2022-08-21T16:28:26.775Z,3.43
2022-08-21T16:33:39.123Z,1.93
2022-08-21T16:38:38.288Z,1.73
2022-08-21T16:43:35.612Z,3.40
2022-08-21T16:53:28.258Z,2.97
2022-08-21T16:58:33.990Z,1.80
2022-08-21T17:03:34.339Z,2.35
2022-08-21T17:08:30.666Z,2.17
2022-08-21T17:13:27.199Z,1.67
2022-08-21T17:18:25.336Z,3.20
2022-08-21T17:23:21.746Z,3.83
2022-08-21T17:28:26.502Z,2.70
2022-08-21T17:33:25.339Z,2.42
2022-08-21T17:38:21.951Z,1.27
2022-08-21T17:43:18.518Z,3.35
2022-08-21T17:48:14.816Z,1.85
2022-08-21T17:53:11.312Z,1.10
2022-08-21T17:58:11.890Z,1.87
2022-08-21T18:03:16.233Z,1.70
2022-08-21T18:08:13.437Z,4.07
2022-08-21T18:18:08.395Z,3.60
2022-08-21T18:23:04.706Z,4.43
2022-08-21T18:28:07.163Z,1.85
2022-08-21T18:33:03.835Z,3.70
2022-08-21T18:38:00.146Z,2.27
2022-08-21T18:42:56.617Z,2.03
2022-08-21T18:47:55.766Z,2.70
2022-08-21T18:53:11.126Z,2.95
2022-08-21T18:58:09.008Z,1.63
2022-08-21T19:03:06.008Z,2.03
2022-08-21T19:08:04.340Z,1.75
2022-08-21T19:13:01.386Z,1.25
2022-08-21T19:17:59.037Z,1.80
2022-08-21T19:22:56.330Z,2.65
2022-08-21T19:27:53.239Z,2.75
2022-08-21T19:32:52.436Z,1.85
2022-08-21T19:37:48.858Z,6.25
2022-08-21T19:42:45.335Z,2.15
2022-08-21T19:47:47.135Z,1.05
2022-08-21T19:52:46.694Z,4.70
2022-08-21T19:57:47.844Z,5.13
2022-08-21T20:02:47.839Z,3.45
2022-08-21T20:13:01.948Z,5.00
2022-08-21T20:17:59.487Z,2.78
2022-08-21T20:22:55.841Z,6.38
2022-08-21T20:27:52.811Z,1.95
2022-08-21T20:32:49.394Z,3.20
2022-08-21T20:37:45.938Z,3.65
2022-08-21T20:42:56.440Z,2.80
2022-08-21T20:48:01.236Z,2.42
2022-08-21T20:53:05.533Z,2.17
2022-08-21T20:58:08.082Z,3.75
2022-08-21T21:03:13.873Z,6.13
2022-08-21T21:08:23.852Z,2.88
2022-08-21T21:13:47.893Z,6.88
2022-08-21T21:18:49.801Z,2.38
2022-08-21T21:23:56.190Z,1.52
2022-08-21T21:29:00.582Z,3.33
2022-08-21T21:33:57.689Z,4.80
2022-08-21T21:39:07.516Z,2.15
2022-08-21T21:44:27.590Z,4.45
2022-08-21T21:49:50.635Z,3.70
2022-08-21T21:55:00.197Z,2.90
2022-08-21T22:00:08.264Z,2.28
2022-08-21T22:05:38.750Z,3.65
2022-08-21T22:11:00.821Z,1.88
2022-08-21T22:16:06.523Z,3.92
2022-08-21T22:21:12.623Z,2.67
2022-08-21T22:26:13.805Z,5.85
2022-08-21T22:31:24.285Z,3.55
2022-08-21T22:36:21.275Z,3.72
2022-08-21T22:41:28.131Z,5.80
2022-08-21T22:46:29.559Z,2.73
2022-08-21T22:51:36.183Z,2.78
2022-08-21T23:02:07.737Z,2.53
2022-08-21T23:07:07.763Z,5.40
2022-08-21T23:12:23.652Z,6.28
2022-08-21T23:17:45.479Z,8.32
2022-08-21T23:23:22.583Z,5.03
2022-08-21T23:33:43.993Z,4.65
2022-08-21T23:39:05.222Z,8.60
2022-08-21T23:44:26.022Z,8.45
2022-08-21T23:49:49.525Z,8.45
2022-08-21T23:55:29.277Z,2.78
